sensor_id;sensor_type;location;lat;lon;timestamp;temperature;humidity
10443;DHT22;5269;51.146;16.986;2023-12-20T00:00:12;6.50;99.90
10443;DHT22;5269;51.146;16.986;2023-12-20T00:02:39;6.60;99.90
10443;DHT22;5269;51.146;16.986;2023-12-20T00:05:07;6.60;99.90
10443;DHT22;5269;51.146;16.986;2023-12-20T00:07:34;6.60;99.90
10443;DHT22;5269;51.146;16.986;2023-12-20T00:10:01;6.60;99.90
10443;DHT22;5269;51.146;16.986;2023-12-20T00:12:29;6.60;99.90
10443;DHT22;5269;51.146;16.986;2023-12-20T00:14:56;6.50;99.90
10443;DHT22;5269;51.146;16.986;2023-12-20T00:17:23;6.60;99.90
10443;DHT22;5269;51.146;16.986;2023-12-20T00:19:50;6.60;99.90
10443;DHT22;5269;51.146;16.986;2023-12-20T00:22:17;6.60;99.90
10443;DHT22;5269;51.146;16.986;2023-12-20T00:24:43;6.60;99.90
10443;DHT22;5269;51.146;16.986;2023-12-20T00:27:10;6.60;99.90
10443;DHT22;5269;51.146;16.986;2023-12-20T00:29:39;6.50;99.90
10443;DHT22;5269;51.146;16.986;2023-12-20T00:32:08;6.50;99.90
10443;DHT22;5269;51.146;16.986;2023-12-20T00:34:35;6.50;99.90
10443;DHT22;5269;51.146;16.986;2023-12-20T00:37:10;6.60;99.90
10443;DHT22;5269;51.146;16.986;2023-12-20T00:39:37;6.50;99.90
10443;DHT22;5269;51.146;16.986;2023-12-20T00:42:04;6.40;99.90
10443;DHT22;5269;51.146;16.986;2023-12-20T00:44:31;6.40;99.90
10443;DHT22;5269;51.146;16.986;2023-12-20T00:47:01;6.40;99.90
10443;DHT22;5269;51.146;16.986;2023-12-20T00:49:28;6.30;99.90
10443;DHT22;5269;51.146;16.986;2023-12-20T00:51:55;6.30;99.90
10443;DHT22;5269;51.146;16.986;2023-12-20T00:54:22;6.30;99.90
10443;DHT22;5269;51.146;16.986;2023-12-20T00:56:49;6.40;99.90
10443;DHT22;5269;51.146;16.986;2023-12-20T00:59:16;6.40;99.90
10443;DHT22;5269;51.146;16.986;2023-12-20T01:01:44;6.40;99.90
10443;DHT22;5269;51.146;16.986;2023-12-20T01:04:12;6.40;99.90
10443;DHT22;5269;51.146;16.986;2023-12-20T01:06:39;6.40;99.90
10443;DHT22;5269;51.146;16.986;2023-12-20T01:09:06;6.50;99.90
10443;DHT22;5269;51.146;16.986;2023-12-20T01:11:33;6.40;99.90
10443;DHT22;5269;51.146;16.986;2023-12-20T01:13:59;6.50;99.90
10443;DHT22;5269;51.146;16.986;2023-12-20T01:16:26;6.50;99.90
10443;DHT22;5269;51.146;16.986;2023-12-20T01:18:53;6.50;99.90
10443;DHT22;5269;51.146;16.986;2023-12-20T01:21:22;6.50;99.90
10443;DHT22;5269;51.146;16.986;2023-12-20T01:23:50;6.50;99.90
10443;DHT22;5269;51.146;16.986;2023-12-20T01:26:17;6.50;99.90
10443;DHT22;5269;51.146;16.986;2023-12-20T01:28:44;6.40;99.90
10443;DHT22;5269;51.146;16.986;2023-12-20T01:31:11;6.40;99.90
10443;DHT22;5269;51.146;16.986;2023-12-20T01:33:38;6.40;99.90
10443;DHT22;5269;51.146;16.986;2023-12-20T01:36:05;6.50;99.90
10443;DHT22;5269;51.146;16.986;2023-12-20T01:38:34;6.40;99.90
10443;DHT22;5269;51.146;16.986;2023-12-20T01:41:03;6.50;99.90
10443;DHT22;5269;51.146;16.986;2023-12-20T01:43:30;6.40;99.90
10443;DHT22;5269;51.146;16.986;2023-12-20T01:45:58;6.40;99.90
10443;DHT22;5269;51.146;16.986;2023-12-20T01:48:33;6.40;99.90
10443;DHT22;5269;51.146;16.986;2023-12-20T01:51:02;6.30;99.90
10443;DHT22;5269;51.146;16.986;2023-12-20T01:53:29;6.40;99.90
10443;DHT22;5269;51.146;16.986;2023-12-20T01:55:59;6.30;99.90
10443;DHT22;5269;51.146;16.986;2023-12-20T01:58:27;6.40;99.90
10443;DHT22;5269;51.146;16.986;2023-12-20T02:00:55;6.40;99.90
10443;DHT22;5269;51.146;16.986;2023-12-20T02:03:22;6.40;99.90
10443;DHT22;5269;51.146;16.986;2023-12-20T02:05:51;6.40;99.90
10443;DHT22;5269;51.146;16.986;2023-12-20T02:08:18;6.40;99.90
10443;DHT22;5269;51.146;16.986;2023-12-20T02:10:44;6.40;99.90
10443;DHT22;5269;51.146;16.986;2023-12-20T02:13:13;6.40;99.90
10443;DHT22;5269;51.146;16.986;2023-12-20T02:15:40;6.40;99.90
10443;DHT22;5269;51.146;16.986;2023-12-20T02:18:09;6.30;99.90
10443;DHT22;5269;51.146;16.986;2023-12-20T02:20:38;6.40;99.90
10443;DHT22;5269;51.146;16.986;2023-12-20T02:23:06;6.40;99.90
10443;DHT22;5269;51.146;16.986;2023-12-20T02:25:33;6.30;99.90
10443;DHT22;5269;51.146;16.986;2023-12-20T02:28:00;6.30;99.90
10443;DHT22;5269;51.146;16.986;2023-12-20T02:30:27;6.30;99.90
10443;DHT22;5269;51.146;16.986;2023-12-20T02:32:54;6.20;99.90
10443;DHT22;5269;51.146;16.986;2023-12-20T02:35:21;6.20;99.90
10443;DHT22;5269;51.146;16.986;2023-12-20T02:37:48;6.20;99.90
10443;DHT22;5269;51.146;16.986;2023-12-20T02:40:16;6.10;99.90
10443;DHT22;5269;51.146;16.986;2023-12-20T02:42:43;6.10;99.90
10443;DHT22;5269;51.146;16.986;2023-12-20T02:45:10;6.00;99.90
10443;DHT22;5269;51.146;16.986;2023-12-20T02:47:37;6.00;99.90
10443;DHT22;5269;51.146;16.986;2023-12-20T02:50:04;6.00;99.90
10443;DHT22;5269;51.146;16.986;2023-12-20T02:52:31;6.00;99.90
10443;DHT22;5269;51.146;16.986;2023-12-20T02:54:57;6.10;99.90
10443;DHT22;5269;51.146;16.986;2023-12-20T02:57:26;6.00;99.90
10443;DHT22;5269;51.146;16.986;2023-12-20T02:59:53;6.00;99.90
10443;DHT22;5269;51.146;16.986;2023-12-20T03:02:19;6.00;99.90
10443;DHT22;5269;51.146;16.986;2023-12-20T03:04:46;5.90;99.90
10443;DHT22;5269;51.146;16.986;2023-12-20T03:07:13;5.90;99.90
10443;DHT22;5269;51.146;16.986;2023-12-20T03:09:40;5.90;99.90
10443;DHT22;5269;51.146;16.986;2023-12-20T03:12:07;5.80;99.90
10443;DHT22;5269;51.146;16.986;2023-12-20T03:14:35;5.80;99.90
10443;DHT22;5269;51.146;16.986;2023-12-20T03:17:03;5.90;99.90
10443;DHT22;5269;51.146;16.986;2023-12-20T03:19:29;5.80;99.90
10443;DHT22;5269;51.146;16.986;2023-12-20T03:21:56;5.90;99.90
10443;DHT22;5269;51.146;16.986;2023-12-20T03:24:28;5.90;99.90
10443;DHT22;5269;51.146;16.986;2023-12-20T03:26:55;5.90;99.90
10443;DHT22;5269;51.146;16.986;2023-12-20T03:29:22;5.90;99.90
10443;DHT22;5269;51.146;16.986;2023-12-20T03:31:50;5.80;99.90
10443;DHT22;5269;51.146;16.986;2023-12-20T03:34:17;5.80;99.90
10443;DHT22;5269;51.146;16.986;2023-12-20T03:36:44;5.70;99.90
10443;DHT22;5269;51.146;16.986;2023-12-20T03:39:13;5.80;99.90
10443;DHT22;5269;51.146;16.986;2023-12-20T03:41:40;5.70;99.90
10443;DHT22;5269;51.146;16.986;2023-12-20T03:44:24;5.70;99.90
10443;DHT22;5269;51.146;16.986;2023-12-20T03:46:53;5.70;99.90
10443;DHT22;5269;51.146;16.986;2023-12-20T03:49:20;5.70;99.90
10443;DHT22;5269;51.146;16.986;2023-12-20T03:51:46;5.60;99.90
10443;DHT22;5269;51.146;16.986;2023-12-20T03:54:13;5.70;99.90
10443;DHT22;5269;51.146;16.986;2023-12-20T03:56:40;5.60;99.90
10443;DHT22;5269;51.146;16.986;2023-12-20T03:59:07;5.60;99.90
10443;DHT22;5269;51.146;16.986;2023-12-20T04:01:34;5.50;99.90
10443;DHT22;5269;51.146;16.986;2023-12-20T04:04:03;5.50;99.90
10443;DHT22;5269;51.146;16.986;2023-12-20T04:06:30;5.50;99.90
10443;DHT22;5269;51.146;16.986;2023-12-20T04:08:56;5.50;99.90
10443;DHT22;5269;51.146;16.986;2023-12-20T04:11:23;5.50;99.90
10443;DHT22;5269;51.146;16.986;2023-12-20T04:13:50;5.50;99.90
10443;DHT22;5269;51.146;16.986;2023-12-20T04:16:17;5.50;99.90
10443;DHT22;5269;51.146;16.986;2023-12-20T04:18:44;5.50;99.90
10443;DHT22;5269;51.146;16.986;2023-12-20T04:21:12;5.50;99.90
10443;DHT22;5269;51.146;16.986;2023-12-20T04:23:42;5.40;99.90
10443;DHT22;5269;51.146;16.986;2023-12-20T04:26:08;5.50;99.90
10443;DHT22;5269;51.146;16.986;2023-12-20T04:28:35;5.40;99.90
10443;DHT22;5269;51.146;16.986;2023-12-20T04:31:02;5.40;99.90
10443;DHT22;5269;51.146;16.986;2023-12-20T04:33:29;5.40;99.90
10443;DHT22;5269;51.146;16.986;2023-12-20T04:35:56;5.40;99.90
10443;DHT22;5269;51.146;16.986;2023-12-20T04:38:24;5.40;99.90
10443;DHT22;5269;51.146;16.986;2023-12-20T04:40:51;5.40;99.90
10443;DHT22;5269;51.146;16.986;2023-12-20T04:43:20;5.40;99.90
10443;DHT22;5269;51.146;16.986;2023-12-20T04:45:48;5.40;99.90
10443;DHT22;5269;51.146;16.986;2023-12-20T04:48:15;5.40;99.90
10443;DHT22;5269;51.146;16.986;2023-12-20T04:50:42;5.30;99.90
10443;DHT22;5269;51.146;16.986;2023-12-20T04:53:09;5.30;99.90
10443;DHT22;5269;51.146;16.986;2023-12-20T04:55:37;5.40;99.90
10443;DHT22;5269;51.146;16.986;2023-12-20T04:58:04;5.30;99.90
10443;DHT22;5269;51.146;16.986;2023-12-20T05:00:31;5.30;99.90
10443;DHT22;5269;51.146;16.986;2023-12-20T05:03:00;5.30;99.90
10443;DHT22;5269;51.146;16.986;2023-12-20T05:05:27;5.30;99.90
10443;DHT22;5269;51.146;16.986;2023-12-20T05:07:54;5.30;99.90
10443;DHT22;5269;51.146;16.986;2023-12-20T05:10:23;5.30;99.90
10443;DHT22;5269;51.146;16.986;2023-12-20T05:12:53;5.30;99.90
10443;DHT22;5269;51.146;16.986;2023-12-20T05:15:20;5.30;99.90
10443;DHT22;5269;51.146;16.986;2023-12-20T05:17:46;5.30;99.90
10443;DHT22;5269;51.146;16.986;2023-12-20T05:20:13;5.30;99.90
10443;DHT22;5269;51.146;16.986;2023-12-20T05:22:41;5.20;99.90
10443;DHT22;5269;51.146;16.986;2023-12-20T05:25:08;5.20;99.90
10443;DHT22;5269;51.146;16.986;2023-12-20T05:27:35;5.20;99.90
10443;DHT22;5269;51.146;16.986;2023-12-20T05:30:05;5.20;99.90
10443;DHT22;5269;51.146;16.986;2023-12-20T05:32:32;5.20;99.90
10443;DHT22;5269;51.146;16.986;2023-12-20T05:34:59;5.20;99.90
10443;DHT22;5269;51.146;16.986;2023-12-20T05:37:26;5.40;99.90
10443;DHT22;5269;51.146;16.986;2023-12-20T05:39:54;5.30;99.90
10443;DHT22;5269;51.146;16.986;2023-12-20T05:42:21;5.30;99.90
10443;DHT22;5269;51.146;16.986;2023-12-20T05:44:48;5.30;99.90
10443;DHT22;5269;51.146;16.986;2023-12-20T05:47:20;5.30;99.90
10443;DHT22;5269;51.146;16.986;2023-12-20T05:49:47;5.20;99.90
10443;DHT22;5269;51.146;16.986;2023-12-20T05:52:16;5.20;99.90
10443;DHT22;5269;51.146;16.986;2023-12-20T05:54:52;5.30;99.90
10443;DHT22;5269;51.146;16.986;2023-12-20T06:00:41;5.20;99.90
10443;DHT22;5269;51.146;16.986;2023-12-20T06:03:09;5.30;99.90
10443;DHT22;5269;51.146;16.986;2023-12-20T06:05:36;5.20;99.90
10443;DHT22;5269;51.146;16.986;2023-12-20T06:08:04;5.30;99.90
10443;DHT22;5269;51.146;16.986;2023-12-20T06:10:31;5.30;99.90
10443;DHT22;5269;51.146;16.986;2023-12-20T06:12:58;5.30;99.90
10443;DHT22;5269;51.146;16.986;2023-12-20T06:15:28;5.30;99.90
10443;DHT22;5269;51.146;16.986;2023-12-20T06:18:04;5.30;99.90
10443;DHT22;5269;51.146;16.986;2023-12-20T06:20:32;5.30;99.90
10443;DHT22;5269;51.146;16.986;2023-12-20T06:23:02;5.30;99.90
10443;DHT22;5269;51.146;16.986;2023-12-20T06:25:35;5.30;99.90
10443;DHT22;5269;51.146;16.986;2023-12-20T06:28:13;5.30;99.90
10443;DHT22;5269;51.146;16.986;2023-12-20T06:30:43;5.20;99.90
10443;DHT22;5269;51.146;16.986;2023-12-20T06:33:14;5.30;99.90
10443;DHT22;5269;51.146;16.986;2023-12-20T06:35:56;5.30;99.90
10443;DHT22;5269;51.146;16.986;2023-12-20T06:38:31;5.30;99.90
10443;DHT22;5269;51.146;16.986;2023-12-20T06:41:04;5.30;99.90
10443;DHT22;5269;51.146;16.986;2023-12-20T06:43:41;5.20;99.90
10443;DHT22;5269;51.146;16.986;2023-12-20T06:46:14;5.30;99.90
10443;DHT22;5269;51.146;16.986;2023-12-20T06:48:44;5.30;99.90
10443;DHT22;5269;51.146;16.986;2023-12-20T06:51:14;5.20;99.90
10443;DHT22;5269;51.146;16.986;2023-12-20T06:53:43;5.20;99.90
10443;DHT22;5269;51.146;16.986;2023-12-20T06:56:12;5.20;99.90
10443;DHT22;5269;51.146;16.986;2023-12-20T06:58:45;5.20;99.90
10443;DHT22;5269;51.146;16.986;2023-12-20T07:01:22;5.20;99.90
10443;DHT22;5269;51.146;16.986;2023-12-20T07:03:55;5.20;99.90
10443;DHT22;5269;51.146;16.986;2023-12-20T07:06:23;5.20;99.90
10443;DHT22;5269;51.146;16.986;2023-12-20T07:08:52;5.20;99.90
10443;DHT22;5269;51.146;16.986;2023-12-20T07:11:25;5.20;99.90
10443;DHT22;5269;51.146;16.986;2023-12-20T07:13:51;5.10;99.90
10443;DHT22;5269;51.146;16.986;2023-12-20T07:16:21;5.20;99.90
10443;DHT22;5269;51.146;16.986;2023-12-20T07:18:48;5.10;99.90
10443;DHT22;5269;51.146;16.986;2023-12-20T07:21:24;5.20;99.90
10443;DHT22;5269;51.146;16.986;2023-12-20T07:23:52;5.10;99.90
10443;DHT22;5269;51.146;16.986;2023-12-20T07:26:21;5.10;99.90
10443;DHT22;5269;51.146;16.986;2023-12-20T07:28:48;5.10;99.90
10443;DHT22;5269;51.146;16.986;2023-12-20T07:31:33;5.10;99.90
10443;DHT22;5269;51.146;16.986;2023-12-20T07:34:02;5.10;99.90
10443;DHT22;5269;51.146;16.986;2023-12-20T07:36:32;5.10;99.90
10443;DHT22;5269;51.146;16.986;2023-12-20T07:39:04;5.00;99.90
10443;DHT22;5269;51.146;16.986;2023-12-20T07:41:34;5.00;99.90
10443;DHT22;5269;51.146;16.986;2023-12-20T07:44:04;5.10;99.90
10443;DHT22;5269;51.146;16.986;2023-12-20T07:46:32;5.10;99.90
10443;DHT22;5269;51.146;16.986;2023-12-20T07:49:04;5.10;99.90
10443;DHT22;5269;51.146;16.986;2023-12-20T07:51:33;5.10;99.90
10443;DHT22;5269;51.146;16.986;2023-12-20T07:54:01;5.10;99.90
10443;DHT22;5269;51.146;16.986;2023-12-20T07:56:34;5.10;99.90
10443;DHT22;5269;51.146;16.986;2023-12-20T07:59:04;5.10;99.90
10443;DHT22;5269;51.146;16.986;2023-12-20T08:01:33;5.00;99.90
10443;DHT22;5269;51.146;16.986;2023-12-20T08:04:01;5.10;99.90
10443;DHT22;5269;51.146;16.986;2023-12-20T08:06:32;5.10;99.90
10443;DHT22;5269;51.146;16.986;2023-12-20T08:09:01;5.00;99.90
10443;DHT22;5269;51.146;16.986;2023-12-20T08:11:35;5.00;99.90
10443;DHT22;5269;51.146;16.986;2023-12-20T08:14:11;5.00;99.90
10443;DHT22;5269;51.146;16.986;2023-12-20T08:16:39;5.00;99.90
10443;DHT22;5269;51.146;16.986;2023-12-20T08:19:09;5.00;99.90
10443;DHT22;5269;51.146;16.986;2023-12-20T08:21:44;5.00;99.90
10443;DHT22;5269;51.146;16.986;2023-12-20T08:24:12;5.00;99.90
10443;DHT22;5269;51.146;16.986;2023-12-20T08:26:40;5.00;99.90
10443;DHT22;5269;51.146;16.986;2023-12-20T08:29:13;5.00;99.90
10443;DHT22;5269;51.146;16.986;2023-12-20T08:31:41;5.00;99.90
10443;DHT22;5269;51.146;16.986;2023-12-20T08:34:14;5.00;99.90
10443;DHT22;5269;51.146;16.986;2023-12-20T08:36:42;5.00;99.90
10443;DHT22;5269;51.146;16.986;2023-12-20T08:39:13;5.00;99.90
10443;DHT22;5269;51.146;16.986;2023-12-20T08:41:40;5.00;99.90
10443;DHT22;5269;51.146;16.986;2023-12-20T08:44:13;5.00;99.90
10443;DHT22;5269;51.146;16.986;2023-12-20T08:46:42;5.10;99.90
10443;DHT22;5269;51.146;16.986;2023-12-20T08:49:15;5.10;99.90
10443;DHT22;5269;51.146;16.986;2023-12-20T08:51:53;5.10;99.90
10443;DHT22;5269;51.146;16.986;2023-12-20T08:54:23;5.10;99.90
10443;DHT22;5269;51.146;16.986;2023-12-20T08:57:02;5.10;99.90
10443;DHT22;5269;51.146;16.986;2023-12-20T08:59:34;5.00;99.90
10443;DHT22;5269;51.146;16.986;2023-12-20T09:02:16;5.10;99.90
10443;DHT22;5269;51.146;16.986;2023-12-20T09:04:55;5.10;99.90
10443;DHT22;5269;51.146;16.986;2023-12-20T09:07:35;5.10;99.90
10443;DHT22;5269;51.146;16.986;2023-12-20T09:10:32;5.10;99.90
10443;DHT22;5269;51.146;16.986;2023-12-20T09:13:13;5.10;99.90
10443;DHT22;5269;51.146;16.986;2023-12-20T09:15:43;5.10;99.90
10443;DHT22;5269;51.146;16.986;2023-12-20T09:18:25;5.10;99.90
10443;DHT22;5269;51.146;16.986;2023-12-20T09:21:03;5.10;99.90
10443;DHT22;5269;51.146;16.986;2023-12-20T09:23:33;5.10;99.90
10443;DHT22;5269;51.146;16.986;2023-12-20T09:26:05;5.20;99.90
10443;DHT22;5269;51.146;16.986;2023-12-20T09:28:52;5.10;99.90
10443;DHT22;5269;51.146;16.986;2023-12-20T09:31:27;5.20;99.90
10443;DHT22;5269;51.146;16.986;2023-12-20T09:34:14;5.20;99.90
10443;DHT22;5269;51.146;16.986;2023-12-20T09:36:45;5.20;99.90
10443;DHT22;5269;51.146;16.986;2023-12-20T09:39:22;5.30;99.90
10443;DHT22;5269;51.146;16.986;2023-12-20T09:42:02;5.40;99.90
10443;DHT22;5269;51.146;16.986;2023-12-20T09:44:35;5.40;99.90
10443;DHT22;5269;51.146;16.986;2023-12-20T09:47:23;5.40;99.90
10443;DHT22;5269;51.146;16.986;2023-12-20T09:49:54;5.40;99.90
10443;DHT22;5269;51.146;16.986;2023-12-20T09:52:55;5.40;99.90
10443;DHT22;5269;51.146;16.986;2023-12-20T09:55:25;5.50;99.90
10443;DHT22;5269;51.146;16.986;2023-12-20T09:58:04;5.50;99.90
10443;DHT22;5269;51.146;16.986;2023-12-20T10:00:32;5.50;99.90
10443;DHT22;5269;51.146;16.986;2023-12-20T10:03:09;5.50;99.90
10443;DHT22;5269;51.146;16.986;2023-12-20T10:05:43;5.50;99.90
10443;DHT22;5269;51.146;16.986;2023-12-20T10:08:12;5.50;99.90
10443;DHT22;5269;51.146;16.986;2023-12-20T10:10:41;5.50;99.90
10443;DHT22;5269;51.146;16.986;2023-12-20T10:13:12;5.50;99.90
10443;DHT22;5269;51.146;16.986;2023-12-20T10:15:45;5.60;99.90
10443;DHT22;5269;51.146;16.986;2023-12-20T10:18:13;5.60;99.90
10443;DHT22;5269;51.146;16.986;2023-12-20T10:20:42;5.60;99.90
10443;DHT22;5269;51.146;16.986;2023-12-20T10:23:15;5.60;99.90
10443;DHT22;5269;51.146;16.986;2023-12-20T10:26:03;5.60;99.90
10443;DHT22;5269;51.146;16.986;2023-12-20T10:28:34;5.60;99.90
10443;DHT22;5269;51.146;16.986;2023-12-20T10:31:33;5.60;99.90
10443;DHT22;5269;51.146;16.986;2023-12-20T10:34:04;5.80;99.90
10443;DHT22;5269;51.146;16.986;2023-12-20T10:36:34;5.80;99.90
10443;DHT22;5269;51.146;16.986;2023-12-20T10:39:04;5.80;99.90
10443;DHT22;5269;51.146;16.986;2023-12-20T10:41:44;5.80;99.90
10443;DHT22;5269;51.146;16.986;2023-12-20T10:44:16;5.70;99.90
10443;DHT22;5269;51.146;16.986;2023-12-20T10:46:52;5.80;99.90
10443;DHT22;5269;51.146;16.986;2023-12-20T10:49:24;5.80;99.90
10443;DHT22;5269;51.146;16.986;2023-12-20T10:52:04;5.80;99.90
10443;DHT22;5269;51.146;16.986;2023-12-20T10:54:32;5.80;99.90
10443;DHT22;5269;51.146;16.986;2023-12-20T10:57:06;6.00;99.90
10443;DHT22;5269;51.146;16.986;2023-12-20T10:59:43;6.00;99.90
10443;DHT22;5269;51.146;16.986;2023-12-20T11:02:36;6.10;99.90
10443;DHT22;5269;51.146;16.986;2023-12-20T11:05:26;6.00;99.90
10443;DHT22;5269;51.146;16.986;2023-12-20T11:08:14;6.10;1.00
10443;DHT22;5269;51.146;16.986;2023-12-20T11:11:06;6.10;10.10
10443;DHT22;5269;51.146;16.986;2023-12-20T11:13:49;6.10;1.00
10443;DHT22;5269;51.146;16.986;2023-12-20T11:16:24;6.20;1.00
10443;DHT22;5269;51.146;16.986;2023-12-20T11:18:53;6.30;99.90
10443;DHT22;5269;51.146;16.986;2023-12-20T11:21:22;6.40;1.00
10443;DHT22;5269;51.146;16.986;2023-12-20T11:23:53;6.50;99.90
10443;DHT22;5269;51.146;16.986;2023-12-20T11:26:23;6.60;1.00
10443;DHT22;5269;51.146;16.986;2023-12-20T11:29:31;6.60;99.90
10443;DHT22;5269;51.146;16.986;2023-12-20T11:32:04;6.70;1.00
10443;DHT22;5269;51.146;16.986;2023-12-20T11:34:54;6.70;99.90
10443;DHT22;5269;51.146;16.986;2023-12-20T11:37:35;6.60;99.90
10443;DHT22;5269;51.146;16.986;2023-12-20T11:40:05;6.60;1.00
10443;DHT22;5269;51.146;16.986;2023-12-20T11:42:44;6.70;1.00
10443;DHT22;5269;51.146;16.986;2023-12-20T11:45:14;6.70;1.00
10443;DHT22;5269;51.146;16.986;2023-12-20T11:47:46;6.80;99.90
10443;DHT22;5269;51.146;16.986;2023-12-20T11:50:15;6.70;1.00
10443;DHT22;5269;51.146;16.986;2023-12-20T11:55:54;6.80;1.00
10443;DHT22;5269;51.146;16.986;2023-12-20T11:58:42;6.80;1.00
10443;DHT22;5269;51.146;16.986;2023-12-20T12:01:10;6.80;1.00
10443;DHT22;5269;51.146;16.986;2023-12-20T12:03:47;6.80;99.90
10443;DHT22;5269;51.146;16.986;2023-12-20T12:06:34;6.80;99.90
10443;DHT22;5269;51.146;16.986;2023-12-20T12:09:03;6.80;1.00
10443;DHT22;5269;51.146;16.986;2023-12-20T12:11:30;6.80;5.70
10443;DHT22;5269;51.146;16.986;2023-12-20T12:14:03;6.80;1.00
10443;DHT22;5269;51.146;16.986;2023-12-20T12:16:32;6.80;1.00
10443;DHT22;5269;51.146;16.986;2023-12-20T12:19:00;6.80;32.60
10443;DHT22;5269;51.146;16.986;2023-12-20T12:21:33;6.80;1.00
10443;DHT22;5269;51.146;16.986;2023-12-20T12:24:07;6.80;99.90
10443;DHT22;5269;51.146;16.986;2023-12-20T12:26:52;6.80;99.90
10443;DHT22;5269;51.146;16.986;2023-12-20T12:29:25;6.80;12.30
10443;DHT22;5269;51.146;16.986;2023-12-20T12:31:54;6.80;1.00
10443;DHT22;5269;51.146;16.986;2023-12-20T12:34:27;6.80;99.90
10443;DHT22;5269;51.146;16.986;2023-12-20T12:36:58;6.80;1.00
10443;DHT22;5269;51.146;16.986;2023-12-20T12:39:26;6.80;1.00
10443;DHT22;5269;51.146;16.986;2023-12-20T12:41:56;6.80;99.90
10443;DHT22;5269;51.146;16.986;2023-12-20T12:44:23;6.80;1.00
10443;DHT22;5269;51.146;16.986;2023-12-20T12:46:52;6.80;1.00
10443;DHT22;5269;51.146;16.986;2023-12-20T12:49:22;6.80;1.00
10443;DHT22;5269;51.146;16.986;2023-12-20T12:51:55;6.80;99.90
10443;DHT22;5269;51.146;16.986;2023-12-20T12:54:32;6.80;1.00
10443;DHT22;5269;51.146;16.986;2023-12-20T12:56:59;6.70;1.00
10443;DHT22;5269;51.146;16.986;2023-12-20T12:59:35;6.70;99.90
10443;DHT22;5269;51.146;16.986;2023-12-20T13:02:04;6.50;1.00
10443;DHT22;5269;51.146;16.986;2023-12-20T13:04:34;6.60;1.00
10443;DHT22;5269;51.146;16.986;2023-12-20T13:07:05;6.70;99.90
10443;DHT22;5269;51.146;16.986;2023-12-20T13:09:32;6.70;1.00
10443;DHT22;5269;51.146;16.986;2023-12-20T13:12:00;6.60;83.10
10443;DHT22;5269;51.146;16.986;2023-12-20T13:14:31;6.60;1.00
10443;DHT22;5269;51.146;16.986;2023-12-20T13:17:05;6.70;1.00
10443;DHT22;5269;51.146;16.986;2023-12-20T13:19:34;6.70;99.90
10443;DHT22;5269;51.146;16.986;2023-12-20T13:22:05;6.70;99.90
10443;DHT22;5269;51.146;16.986;2023-12-20T13:24:34;6.70;99.90
10443;DHT22;5269;51.146;16.986;2023-12-20T13:27:03;6.70;99.90
10443;DHT22;5269;51.146;16.986;2023-12-20T13:29:32;6.80;1.00
10443;DHT22;5269;51.146;16.986;2023-12-20T13:35:56;6.70;78.50
10443;DHT22;5269;51.146;16.986;2023-12-20T13:38:44;6.70;99.90
10443;DHT22;5269;51.146;16.986;2023-12-20T13:41:11;6.60;1.00
10443;DHT22;5269;51.146;16.986;2023-12-20T13:43:43;6.70;1.00
10443;DHT22;5269;51.146;16.986;2023-12-20T13:46:25;6.70;99.90
10443;DHT22;5269;51.146;16.986;2023-12-20T13:48:53;6.70;1.00
10443;DHT22;5269;51.146;16.986;2023-12-20T13:51:20;6.80;1.00
10443;DHT22;5269;51.146;16.986;2023-12-20T13:53:51;6.70;1.00
10443;DHT22;5269;51.146;16.986;2023-12-20T13:56:25;6.80;99.90
10443;DHT22;5269;51.146;16.986;2023-12-20T13:59:03;6.80;12.70
10443;DHT22;5269;51.146;16.986;2023-12-20T14:01:49;6.80;99.90
10443;DHT22;5269;51.146;16.986;2023-12-20T14:04:31;6.90;99.90
10443;DHT22;5269;51.146;16.986;2023-12-20T14:07:04;6.80;1.00
10443;DHT22;5269;51.146;16.986;2023-12-20T14:09:34;6.80;1.00
10443;DHT22;5269;51.146;16.986;2023-12-20T14:12:14;6.80;1.00
10443;DHT22;5269;51.146;16.986;2023-12-20T14:14:41;6.70;1.00
10443;DHT22;5269;51.146;16.986;2023-12-20T14:18:20;6.80;1.00
10443;DHT22;5269;51.146;16.986;2023-12-20T14:20:11;6.80;1.00
10443;DHT22;5269;51.146;16.986;2023-12-20T14:22:43;6.80;1.00
10443;DHT22;5269;51.146;16.986;2023-12-20T14:25:24;6.80;1.00
10443;DHT22;5269;51.146;16.986;2023-12-20T14:28:05;6.80;1.00
10443;DHT22;5269;51.146;16.986;2023-12-20T14:30:53;6.90;1.00
10443;DHT22;5269;51.146;16.986;2023-12-20T14:33:25;6.80;1.00
10443;DHT22;5269;51.146;16.986;2023-12-20T14:35:54;6.80;1.00
10443;DHT22;5269;51.146;16.986;2023-12-20T14:41:06;6.90;99.90
10443;DHT22;5269;51.146;16.986;2023-12-20T14:46:53;6.80;1.00
10443;DHT22;5269;51.146;16.986;2023-12-20T14:49:45;6.80;99.90
10443;DHT22;5269;51.146;16.986;2023-12-20T14:52:57;6.80;99.90
10443;DHT22;5269;51.146;16.986;2023-12-20T14:55:36;6.80;1.00
10443;DHT22;5269;51.146;16.986;2023-12-20T14:58:25;6.80;99.90
10443;DHT22;5269;51.146;16.986;2023-12-20T15:00:55;6.80;99.90
10443;DHT22;5269;51.146;16.986;2023-12-20T15:03:32;6.80;99.90
10443;DHT22;5269;51.146;16.986;2023-12-20T15:06:05;6.80;99.90
10443;DHT22;5269;51.146;16.986;2023-12-20T15:08:44;6.80;99.90
10443;DHT22;5269;51.146;16.986;2023-12-20T15:11:15;6.80;41.50
10443;DHT22;5269;51.146;16.986;2023-12-20T15:13:43;6.70;47.20
10443;DHT22;5269;51.146;16.986;2023-12-20T15:16:12;6.80;92.30
10443;DHT22;5269;51.146;16.986;2023-12-20T15:18:39;6.80;1.00
10443;DHT22;5269;51.146;16.986;2023-12-20T15:21:09;6.80;1.00
10443;DHT22;5269;51.146;16.986;2023-12-20T15:23:39;6.80;1.00
10443;DHT22;5269;51.146;16.986;2023-12-20T15:26:24;6.70;1.00
10443;DHT22;5269;51.146;16.986;2023-12-20T15:28:54;6.70;1.00
10443;DHT22;5269;51.146;16.986;2023-12-20T15:31:21;6.70;1.00
10443;DHT22;5269;51.146;16.986;2023-12-20T15:33:53;6.50;1.00
10443;DHT22;5269;51.146;16.986;2023-12-20T15:36:24;6.50;1.00
10443;DHT22;5269;51.146;16.986;2023-12-20T15:38:53;6.40;52.50
10443;DHT22;5269;51.146;16.986;2023-12-20T15:41:22;6.40;99.90
10443;DHT22;5269;51.146;16.986;2023-12-20T15:43:51;6.40;99.90
10443;DHT22;5269;51.146;16.986;2023-12-20T15:46:18;6.40;1.00
10443;DHT22;5269;51.146;16.986;2023-12-20T15:48:45;6.40;1.00
10443;DHT22;5269;51.146;16.986;2023-12-20T15:51:14;6.40;1.00
10443;DHT22;5269;51.146;16.986;2023-12-20T15:53:43;6.40;1.00
10443;DHT22;5269;51.146;16.986;2023-12-20T15:56:16;6.40;1.00
10443;DHT22;5269;51.146;16.986;2023-12-20T15:58:54;6.40;1.00
10443;DHT22;5269;51.146;16.986;2023-12-20T16:01:23;6.40;1.00
10443;DHT22;5269;51.146;16.986;2023-12-20T16:03:52;6.30;1.00
10443;DHT22;5269;51.146;16.986;2023-12-20T16:06:33;6.40;1.00
10443;DHT22;5269;51.146;16.986;2023-12-20T16:09:03;6.40;1.00
10443;DHT22;5269;51.146;16.986;2023-12-20T16:11:33;6.30;1.00
10443;DHT22;5269;51.146;16.986;2023-12-20T16:14:04;6.30;1.00
10443;DHT22;5269;51.146;16.986;2023-12-20T16:16:33;6.50;1.00
10443;DHT22;5269;51.146;16.986;2023-12-20T16:19:05;6.30;1.00
10443;DHT22;5269;51.146;16.986;2023-12-20T16:21:33;6.40;1.00
10443;DHT22;5269;51.146;16.986;2023-12-20T16:24:05;6.40;1.00
10443;DHT22;5269;51.146;16.986;2023-12-20T16:26:52;6.30;1.00
10443;DHT22;5269;51.146;16.986;2023-12-20T16:29:26;6.40;1.00
10443;DHT22;5269;51.146;16.986;2023-12-20T16:32:00;6.40;1.00